sensor_id;sensor_type;location;lat;lon;timestamp;P1;durP1;ratioP1;P2;durP2;ratioP2
51981;SDS011;37998;53.416;6.730;2023-07-28T00:00:19;17.65;;;8.82;;
51981;SDS011;37998;53.416;6.730;2023-07-28T00:02:48;22.60;;;10.32;;
51981;SDS011;37998;53.416;6.730;2023-07-28T00:05:14;18.90;;;10.77;;
51981;SDS011;37998;53.416;6.730;2023-07-28T00:07:40;18.88;;;9.88;;
51981;SDS011;37998;53.416;6.730;2023-07-28T00:10:06;18.02;;;10.23;;
51981;SDS011;37998;53.416;6.730;2023-07-28T00:12:32;24.75;;;11.77;;
51981;SDS011;37998;53.416;6.730;2023-07-28T00:14:57;20.23;;;10.30;;
51981;SDS011;37998;53.416;6.730;2023-07-28T00:17:25;26.42;;;13.65;;
51981;SDS011;37998;53.416;6.730;2023-07-28T00:19:51;23.17;;;12.77;;
51981;SDS011;37998;53.416;6.730;2023-07-28T00:22:17;26.55;;;14.80;;
51981;SDS011;37998;53.416;6.730;2023-07-28T00:24:43;31.15;;;14.23;;
51981;SDS011;37998;53.416;6.730;2023-07-28T00:27:09;34.55;;;15.18;;
51981;SDS011;37998;53.416;6.730;2023-07-28T00:29:35;34.03;;;14.43;;
51981;SDS011;37998;53.416;6.730;2023-07-28T00:32:01;31.27;;;14.70;;
51981;SDS011;37998;53.416;6.730;2023-07-28T00:34:27;34.05;;;13.98;;
51981;SDS011;37998;53.416;6.730;2023-07-28T00:36:53;30.35;;;13.63;;
51981;SDS011;37998;53.416;6.730;2023-07-28T00:39:19;37.72;;;14.57;;
51981;SDS011;37998;53.416;6.730;2023-07-28T00:41:45;39.58;;;16.48;;
51981;SDS011;37998;53.416;6.730;2023-07-28T00:44:11;26.50;;;13.93;;
51981;SDS011;37998;53.416;6.730;2023-07-28T00:46:40;38.75;;;16.50;;
51981;SDS011;37998;53.416;6.730;2023-07-28T00:49:08;36.80;;;15.98;;
51981;SDS011;37998;53.416;6.730;2023-07-28T00:51:35;39.22;;;17.08;;
51981;SDS011;37998;53.416;6.730;2023-07-28T00:54:02;42.00;;;16.15;;
51981;SDS011;37998;53.416;6.730;2023-07-28T00:56:30;38.80;;;15.25;;
51981;SDS011;37998;53.416;6.730;2023-07-28T00:58:56;35.70;;;16.20;;
51981;SDS011;37998;53.416;6.730;2023-07-28T01:01:23;28.25;;;15.02;;
51981;SDS011;37998;53.416;6.730;2023-07-28T01:03:49;43.15;;;17.73;;
51981;SDS011;37998;53.416;6.730;2023-07-28T01:09:08;33.70;;;16.13;;
51981;SDS011;37998;53.416;6.730;2023-07-28T01:11:52;54.05;;;19.42;;
51981;SDS011;37998;53.416;6.730;2023-07-28T01:14:24;59.83;;;18.58;;
51981;SDS011;37998;53.416;6.730;2023-07-28T01:16:50;45.42;;;18.45;;
51981;SDS011;37998;53.416;6.730;2023-07-28T01:19:17;50.75;;;17.65;;
51981;SDS011;37998;53.416;6.730;2023-07-28T01:21:52;50.13;;;17.40;;
51981;SDS011;37998;53.416;6.730;2023-07-28T01:24:28;48.28;;;18.20;;
51981;SDS011;37998;53.416;6.730;2023-07-28T01:27:03;44.67;;;18.60;;
51981;SDS011;37998;53.416;6.730;2023-07-28T01:29:29;61.47;;;19.08;;
51981;SDS011;37998;53.416;6.730;2023-07-28T01:31:59;41.33;;;18.30;;
51981;SDS011;37998;53.416;6.730;2023-07-28T01:34:25;51.63;;;18.98;;
51981;SDS011;37998;53.416;6.730;2023-07-28T01:36:51;48.72;;;19.70;;
51981;SDS011;37998;53.416;6.730;2023-07-28T01:39:17;55.53;;;19.83;;
51981;SDS011;37998;53.416;6.730;2023-07-28T01:41:43;57.78;;;19.35;;
51981;SDS011;37998;53.416;6.730;2023-07-28T01:44:12;42.83;;;20.00;;
51981;SDS011;37998;53.416;6.730;2023-07-28T01:46:38;58.40;;;20.55;;
51981;SDS011;37998;53.416;6.730;2023-07-28T01:49:07;46.05;;;18.60;;
51981;SDS011;37998;53.416;6.730;2023-07-28T01:51:33;56.78;;;21.00;;
51981;SDS011;37998;53.416;6.730;2023-07-28T01:53:59;50.05;;;20.17;;
51981;SDS011;37998;53.416;6.730;2023-07-28T01:56:25;50.22;;;19.23;;
51981;SDS011;37998;53.416;6.730;2023-07-28T01:58:51;45.15;;;18.00;;
51981;SDS011;37998;53.416;6.730;2023-07-28T02:01:17;57.97;;;19.77;;
51981;SDS011;37998;53.416;6.730;2023-07-28T02:03:43;50.17;;;20.38;;
51981;SDS011;37998;53.416;6.730;2023-07-28T02:06:09;40.95;;;17.23;;
51981;SDS011;37998;53.416;6.730;2023-07-28T02:08:35;61.08;;;20.45;;
51981;SDS011;37998;53.416;6.730;2023-07-28T02:11:01;51.63;;;21.92;;
51981;SDS011;37998;53.416;6.730;2023-07-28T02:13:27;70.65;;;21.73;;
51981;SDS011;37998;53.416;6.730;2023-07-28T02:15:53;57.00;;;20.08;;
51981;SDS011;37998;53.416;6.730;2023-07-28T02:18:19;54.58;;;20.60;;
51981;SDS011;37998;53.416;6.730;2023-07-28T02:20:47;49.85;;;20.38;;
51981;SDS011;37998;53.416;6.730;2023-07-28T02:23:14;65.25;;;21.67;;
51981;SDS011;37998;53.416;6.730;2023-07-28T02:25:40;45.85;;;20.58;;
51981;SDS011;37998;53.416;6.730;2023-07-28T02:28:08;42.78;;;18.77;;
51981;SDS011;37998;53.416;6.730;2023-07-28T02:30:35;48.70;;;19.27;;
51981;SDS011;37998;53.416;6.730;2023-07-28T02:33:01;37.03;;;16.40;;
51981;SDS011;37998;53.416;6.730;2023-07-28T02:35:27;49.40;;;18.10;;
51981;SDS011;37998;53.416;6.730;2023-07-28T02:37:53;50.67;;;19.02;;
51981;SDS011;37998;53.416;6.730;2023-07-28T02:40:19;48.30;;;18.17;;
51981;SDS011;37998;53.416;6.730;2023-07-28T02:42:47;34.13;;;17.55;;
51981;SDS011;37998;53.416;6.730;2023-07-28T02:45:13;43.75;;;18.13;;
51981;SDS011;37998;53.416;6.730;2023-07-28T02:47:39;51.13;;;18.08;;
51981;SDS011;37998;53.416;6.730;2023-07-28T02:50:05;46.75;;;17.75;;
51981;SDS011;37998;53.416;6.730;2023-07-28T02:52:31;39.60;;;16.65;;
51981;SDS011;37998;53.416;6.730;2023-07-28T02:54:57;37.35;;;17.27;;
51981;SDS011;37998;53.416;6.730;2023-07-28T02:57:23;35.53;;;16.23;;
51981;SDS011;37998;53.416;6.730;2023-07-28T02:59:49;42.40;;;17.52;;
51981;SDS011;37998;53.416;6.730;2023-07-28T03:02:15;42.92;;;17.25;;
51981;SDS011;37998;53.416;6.730;2023-07-28T03:04:41;50.03;;;17.75;;
51981;SDS011;37998;53.416;6.730;2023-07-28T03:07:22;43.65;;;16.20;;
51981;SDS011;37998;53.416;6.730;2023-07-28T03:09:55;44.92;;;18.63;;
51981;SDS011;37998;53.416;6.730;2023-07-28T03:12:21;49.65;;;18.08;;
51981;SDS011;37998;53.416;6.730;2023-07-28T03:14:47;48.60;;;16.88;;
51981;SDS011;37998;53.416;6.730;2023-07-28T03:17:13;53.08;;;17.10;;
51981;SDS011;37998;53.416;6.730;2023-07-28T03:19:39;62.70;;;17.95;;
51981;SDS011;37998;53.416;6.730;2023-07-28T03:22:05;39.50;;;14.85;;
51981;SDS011;37998;53.416;6.730;2023-07-28T03:24:31;41.33;;;16.55;;
51981;SDS011;37998;53.416;6.730;2023-07-28T03:27:00;51.10;;;17.05;;
51981;SDS011;37998;53.416;6.730;2023-07-28T03:29:26;36.13;;;15.40;;
51981;SDS011;37998;53.416;6.730;2023-07-28T03:31:52;44.92;;;15.77;;
51981;SDS011;37998;53.416;6.730;2023-07-28T03:34:18;42.08;;;16.25;;
51981;SDS011;37998;53.416;6.730;2023-07-28T03:36:44;45.15;;;17.17;;
51981;SDS011;37998;53.416;6.730;2023-07-28T03:39:11;45.97;;;16.50;;
51981;SDS011;37998;53.416;6.730;2023-07-28T03:41:37;51.30;;;17.20;;
51981;SDS011;37998;53.416;6.730;2023-07-28T03:44:03;41.78;;;16.80;;
51981;SDS011;37998;53.416;6.730;2023-07-28T03:46:29;49.20;;;17.42;;
51981;SDS011;37998;53.416;6.730;2023-07-28T03:48:55;48.10;;;17.13;;
51981;SDS011;37998;53.416;6.730;2023-07-28T03:51:23;50.00;;;17.95;;
51981;SDS011;37998;53.416;6.730;2023-07-28T03:53:49;46.10;;;16.17;;
51981;SDS011;37998;53.416;6.730;2023-07-28T03:56:15;37.58;;;16.90;;
51981;SDS011;37998;53.416;6.730;2023-07-28T03:58:40;36.90;;;15.30;;
51981;SDS011;37998;53.416;6.730;2023-07-28T04:01:06;48.40;;;15.90;;
51981;SDS011;37998;53.416;6.730;2023-07-28T04:03:35;44.78;;;15.80;;
51981;SDS011;37998;53.416;6.730;2023-07-28T04:06:05;35.97;;;15.20;;
51981;SDS011;37998;53.416;6.730;2023-07-28T04:08:36;38.28;;;15.27;;
51981;SDS011;37998;53.416;6.730;2023-07-28T04:11:02;34.33;;;15.93;;
51981;SDS011;37998;53.416;6.730;2023-07-28T04:13:28;37.22;;;16.25;;
51981;SDS011;37998;53.416;6.730;2023-07-28T04:15:54;37.38;;;15.82;;
51981;SDS011;37998;53.416;6.730;2023-07-28T04:18:24;40.83;;;15.50;;
51981;SDS011;37998;53.416;6.730;2023-07-28T04:20:53;41.85;;;16.98;;
51981;SDS011;37998;53.416;6.730;2023-07-28T04:23:19;37.53;;;15.85;;
51981;SDS011;37998;53.416;6.730;2023-07-28T04:25:45;40.17;;;15.57;;
51981;SDS011;37998;53.416;6.730;2023-07-28T04:28:11;41.28;;;15.40;;
51981;SDS011;37998;53.416;6.730;2023-07-28T04:30:37;37.65;;;15.82;;
51981;SDS011;37998;53.416;6.730;2023-07-28T04:33:04;40.80;;;15.88;;
51981;SDS011;37998;53.416;6.730;2023-07-28T04:35:35;36.88;;;14.88;;
51981;SDS011;37998;53.416;6.730;2023-07-28T04:38:14;44.83;;;17.02;;
51981;SDS011;37998;53.416;6.730;2023-07-28T04:41:00;40.92;;;15.85;;
51981;SDS011;37998;53.416;6.730;2023-07-28T04:43:44;36.17;;;15.88;;
51981;SDS011;37998;53.416;6.730;2023-07-28T04:46:13;45.47;;;16.58;;
51981;SDS011;37998;53.416;6.730;2023-07-28T04:48:41;38.38;;;16.85;;
51981;SDS011;37998;53.416;6.730;2023-07-28T04:51:27;32.75;;;15.95;;
51981;SDS011;37998;53.416;6.730;2023-07-28T04:54:11;38.25;;;17.27;;
51981;SDS011;37998;53.416;6.730;2023-07-28T04:56:37;44.55;;;17.60;;
51981;SDS011;37998;53.416;6.730;2023-07-28T04:59:03;48.15;;;17.23;;
51981;SDS011;37998;53.416;6.730;2023-07-28T05:01:29;33.92;;;15.35;;
51981;SDS011;37998;53.416;6.730;2023-07-28T05:03:55;32.78;;;14.52;;
51981;SDS011;37998;53.416;6.730;2023-07-28T05:06:25;36.50;;;14.90;;
51981;SDS011;37998;53.416;6.730;2023-07-28T05:08:50;40.67;;;15.65;;
51981;SDS011;37998;53.416;6.730;2023-07-28T05:11:25;36.20;;;15.40;;
51981;SDS011;37998;53.416;6.730;2023-07-28T05:13:51;40.45;;;14.52;;
51981;SDS011;37998;53.416;6.730;2023-07-28T05:16:17;36.22;;;14.90;;
51981;SDS011;37998;53.416;6.730;2023-07-28T05:19:01;46.47;;;14.80;;
51981;SDS011;37998;53.416;6.730;2023-07-28T05:21:46;38.35;;;14.93;;
51981;SDS011;37998;53.416;6.730;2023-07-28T05:24:13;46.20;;;15.07;;
51981;SDS011;37998;53.416;6.730;2023-07-28T05:26:40;38.42;;;14.07;;
51981;SDS011;37998;53.416;6.730;2023-07-28T05:29:06;34.67;;;14.57;;
51981;SDS011;37998;53.416;6.730;2023-07-28T05:31:32;36.58;;;15.70;;
51981;SDS011;37998;53.416;6.730;2023-07-28T05:33:58;38.65;;;16.45;;
51981;SDS011;37998;53.416;6.730;2023-07-28T05:36:24;37.35;;;14.75;;
51981;SDS011;37998;53.416;6.730;2023-07-28T05:38:54;34.47;;;14.30;;
51981;SDS011;37998;53.416;6.730;2023-07-28T05:41:23;23.92;;;14.88;;
51981;SDS011;37998;53.416;6.730;2023-07-28T05:43:49;31.70;;;13.82;;
51981;SDS011;37998;53.416;6.730;2023-07-28T05:46:16;28.83;;;15.57;;
51981;SDS011;37998;53.416;6.730;2023-07-28T05:48:42;27.33;;;15.40;;
51981;SDS011;37998;53.416;6.730;2023-07-28T05:51:08;30.27;;;14.85;;
51981;SDS011;37998;53.416;6.730;2023-07-28T05:53:34;30.95;;;15.68;;
51981;SDS011;37998;53.416;6.730;2023-07-28T05:56:04;21.88;;;14.38;;
51981;SDS011;37998;53.416;6.730;2023-07-28T05:58:32;25.85;;;14.02;;
51981;SDS011;37998;53.416;6.730;2023-07-28T06:00:58;23.38;;;14.50;;
51981;SDS011;37998;53.416;6.730;2023-07-28T06:03:47;29.50;;;14.77;;
51981;SDS011;37998;53.416;6.730;2023-07-28T06:06:20;27.55;;;15.27;;
51981;SDS011;37998;53.416;6.730;2023-07-28T06:08:49;23.60;;;13.68;;
51981;SDS011;37998;53.416;6.730;2023-07-28T06:11:15;30.80;;;14.60;;
51981;SDS011;37998;53.416;6.730;2023-07-28T06:13:41;26.17;;;14.10;;
51981;SDS011;37998;53.416;6.730;2023-07-28T06:16:07;23.10;;;15.07;;
51981;SDS011;37998;53.416;6.730;2023-07-28T06:18:33;26.63;;;14.50;;
51981;SDS011;37998;53.416;6.730;2023-07-28T06:21:10;27.33;;;13.27;;
51981;SDS011;37998;53.416;6.730;2023-07-28T06:23:36;25.20;;;15.40;;
51981;SDS011;37998;53.416;6.730;2023-07-28T06:26:02;22.08;;;13.68;;
51981;SDS011;37998;53.416;6.730;2023-07-28T06:28:28;21.38;;;13.38;;
51981;SDS011;37998;53.416;6.730;2023-07-28T06:30:55;23.00;;;13.50;;
51981;SDS011;37998;53.416;6.730;2023-07-28T06:33:24;17.40;;;11.25;;
51981;SDS011;37998;53.416;6.730;2023-07-28T06:35:50;18.90;;;12.05;;
51981;SDS011;37998;53.416;6.730;2023-07-28T06:38:17;19.33;;;11.32;;
51981;SDS011;37998;53.416;6.730;2023-07-28T06:40:43;21.75;;;12.23;;
51981;SDS011;37998;53.416;6.730;2023-07-28T06:43:14;14.65;;;10.38;;
51981;SDS011;37998;53.416;6.730;2023-07-28T06:45:40;21.77;;;11.77;;
51981;SDS011;37998;53.416;6.730;2023-07-28T06:48:07;14.43;;;10.30;;
51981;SDS011;37998;53.416;6.730;2023-07-28T06:50:33;13.85;;;10.88;;
51981;SDS011;37998;53.416;6.730;2023-07-28T06:52:59;16.73;;;11.13;;
51981;SDS011;37998;53.416;6.730;2023-07-28T06:55:25;14.32;;;10.68;;
51981;SDS011;37998;53.416;6.730;2023-07-28T06:57:51;11.82;;;10.15;;
51981;SDS011;37998;53.416;6.730;2023-07-28T07:00:17;11.35;;;10.15;;
51981;SDS011;37998;53.416;6.730;2023-07-28T07:02:45;18.50;;;9.57;;
51981;SDS011;37998;53.416;6.730;2023-07-28T07:05:12;10.77;;;9.43;;
51981;SDS011;37998;53.416;6.730;2023-07-28T07:07:39;8.63;;;7.72;;
51981;SDS011;37998;53.416;6.730;2023-07-28T07:10:06;10.30;;;8.35;;
51981;SDS011;37998;53.416;6.730;2023-07-28T07:12:32;10.70;;;8.75;;
51981;SDS011;37998;53.416;6.730;2023-07-28T07:14:58;9.10;;;8.20;;
51981;SDS011;37998;53.416;6.730;2023-07-28T07:17:27;11.38;;;8.43;;
51981;SDS011;37998;53.416;6.730;2023-07-28T07:19:54;10.05;;;7.80;;
51981;SDS011;37998;53.416;6.730;2023-07-28T07:22:20;16.52;;;9.63;;
51981;SDS011;37998;53.416;6.730;2023-07-28T07:24:46;10.95;;;7.63;;
51981;SDS011;37998;53.416;6.730;2023-07-28T07:27:12;10.55;;;7.43;;
51981;SDS011;37998;53.416;6.730;2023-07-28T07:29:38;8.88;;;7.32;;
51981;SDS011;37998;53.416;6.730;2023-07-28T07:32:05;7.60;;;6.53;;
51981;SDS011;37998;53.416;6.730;2023-07-28T07:34:33;8.23;;;7.10;;
51981;SDS011;37998;53.416;6.730;2023-07-28T07:36:59;8.43;;;7.05;;
51981;SDS011;37998;53.416;6.730;2023-07-28T07:39:26;9.98;;;7.53;;
51981;SDS011;37998;53.416;6.730;2023-07-28T07:41:52;11.30;;;7.85;;
51981;SDS011;37998;53.416;6.730;2023-07-28T07:44:18;9.68;;;7.10;;
51981;SDS011;37998;53.416;6.730;2023-07-28T07:46:44;9.70;;;8.13;;
51981;SDS011;37998;53.416;6.730;2023-07-28T07:49:10;13.85;;;8.52;;
51981;SDS011;37998;53.416;6.730;2023-07-28T07:51:36;9.00;;;6.68;;
51981;SDS011;37998;53.416;6.730;2023-07-28T07:54:02;7.72;;;5.40;;
51981;SDS011;37998;53.416;6.730;2023-07-28T07:56:28;8.93;;;5.93;;
51981;SDS011;37998;53.416;6.730;2023-07-28T07:58:56;7.68;;;6.10;;
51981;SDS011;37998;53.416;6.730;2023-07-28T08:01:22;7.82;;;5.93;;
51981;SDS011;37998;53.416;6.730;2023-07-28T08:03:48;9.40;;;5.90;;
51981;SDS011;37998;53.416;6.730;2023-07-28T08:06:14;8.52;;;7.00;;
51981;SDS011;37998;53.416;6.730;2023-07-28T08:08:40;7.10;;;6.13;;
51981;SDS011;37998;53.416;6.730;2023-07-28T08:11:06;8.60;;;7.10;;
51981;SDS011;37998;53.416;6.730;2023-07-28T08:13:33;11.75;;;8.57;;
51981;SDS011;37998;53.416;6.730;2023-07-28T08:15:58;11.75;;;7.80;;
51981;SDS011;37998;53.416;6.730;2023-07-28T08:18:24;12.25;;;10.00;;
51981;SDS011;37998;53.416;6.730;2023-07-28T08:20:50;12.38;;;8.50;;
51981;SDS011;37998;53.416;6.730;2023-07-28T08:23:16;8.25;;;7.40;;
51981;SDS011;37998;53.416;6.730;2023-07-28T08:25:42;7.43;;;5.97;;
51981;SDS011;37998;53.416;6.730;2023-07-28T08:28:08;6.25;;;5.63;;
51981;SDS011;37998;53.416;6.730;2023-07-28T08:30:34;7.30;;;6.28;;
51981;SDS011;37998;53.416;6.730;2023-07-28T08:33:03;8.93;;;6.18;;
51981;SDS011;37998;53.416;6.730;2023-07-28T08:35:29;6.22;;;5.60;;
51981;SDS011;37998;53.416;6.730;2023-07-28T08:37:55;9.82;;;6.95;;
51981;SDS011;37998;53.416;6.730;2023-07-28T08:40:21;9.50;;;7.55;;
51981;SDS011;37998;53.416;6.730;2023-07-28T08:42:47;8.80;;;7.40;;
51981;SDS011;37998;53.416;6.730;2023-07-28T08:45:14;10.05;;;8.85;;
51981;SDS011;37998;53.416;6.730;2023-07-28T08:47:40;12.13;;;9.60;;
51981;SDS011;37998;53.416;6.730;2023-07-28T08:50:07;11.98;;;8.77;;
51981;SDS011;37998;53.416;6.730;2023-07-28T08:52:33;9.40;;;8.23;;
51981;SDS011;37998;53.416;6.730;2023-07-28T08:54:59;9.02;;;7.85;;
51981;SDS011;37998;53.416;6.730;2023-07-28T08:57:25;9.70;;;7.78;;
51981;SDS011;37998;53.416;6.730;2023-07-28T08:59:52;11.20;;;7.85;;
51981;SDS011;37998;53.416;6.730;2023-07-28T09:02:18;13.98;;;8.15;;
51981;SDS011;37998;53.416;6.730;2023-07-28T09:04:46;8.10;;;7.18;;
51981;SDS011;37998;53.416;6.730;2023-07-28T09:07:14;6.88;;;6.20;;
51981;SDS011;37998;53.416;6.730;2023-07-28T09:09:40;8.48;;;7.03;;
51981;SDS011;37998;53.416;6.730;2023-07-28T09:12:06;12.43;;;7.63;;
51981;SDS011;37998;53.416;6.730;2023-07-28T09:14:37;14.45;;;8.48;;
51981;SDS011;37998;53.416;6.730;2023-07-28T09:17:10;13.73;;;8.25;;
51981;SDS011;37998;53.416;6.730;2023-07-28T09:19:54;10.73;;;8.27;;
51981;SDS011;37998;53.416;6.730;2023-07-28T09:22:21;12.23;;;9.13;;
51981;SDS011;37998;53.416;6.730;2023-07-28T09:24:47;11.63;;;8.80;;
51981;SDS011;37998;53.416;6.730;2023-07-28T09:27:24;11.15;;;7.90;;
51981;SDS011;37998;53.416;6.730;2023-07-28T09:29:52;9.73;;;8.30;;
51981;SDS011;37998;53.416;6.730;2023-07-28T09:32:27;7.38;;;6.18;;
51981;SDS011;37998;53.416;6.730;2023-07-28T09:35:08;6.78;;;5.72;;
51981;SDS011;37998;53.416;6.730;2023-07-28T09:37:42;8.15;;;6.75;;
51981;SDS011;37998;53.416;6.730;2023-07-28T09:40:22;7.57;;;6.70;;
51981;SDS011;37998;53.416;6.730;2023-07-28T09:42:48;7.55;;;6.13;;
51981;SDS011;37998;53.416;6.730;2023-07-28T09:45:16;6.53;;;5.20;;
51981;SDS011;37998;53.416;6.730;2023-07-28T09:47:46;5.53;;;4.10;;
51981;SDS011;37998;53.416;6.730;2023-07-28T09:50:14;5.82;;;4.53;;
51981;SDS011;37998;53.416;6.730;2023-07-28T09:52:43;6.13;;;5.10;;
51981;SDS011;37998;53.416;6.730;2023-07-28T09:55:11;8.00;;;5.03;;
51981;SDS011;37998;53.416;6.730;2023-07-28T09:57:45;5.43;;;4.88;;
51981;SDS011;37998;53.416;6.730;2023-07-28T10:00:16;6.65;;;6.03;;
51981;SDS011;37998;53.416;6.730;2023-07-28T10:02:44;5.80;;;5.30;;
51981;SDS011;37998;53.416;6.730;2023-07-28T10:05:11;5.28;;;4.78;;
51981;SDS011;37998;53.416;6.730;2023-07-28T10:07:40;4.80;;;4.18;;
51981;SDS011;37998;53.416;6.730;2023-07-28T10:10:09;4.90;;;4.40;;
51981;SDS011;37998;53.416;6.730;2023-07-28T10:12:50;4.63;;;4.20;;
51981;SDS011;37998;53.416;6.730;2023-07-28T10:15:18;4.57;;;4.18;;
51981;SDS011;37998;53.416;6.730;2023-07-28T10:17:46;4.82;;;4.25;;
51981;SDS011;37998;53.416;6.730;2023-07-28T10:20:31;4.20;;;3.80;;
51981;SDS011;37998;53.416;6.730;2023-07-28T10:25:35;4.47;;;4.00;;
51981;SDS011;37998;53.416;6.730;2023-07-28T10:28:04;4.95;;;4.05;;
51981;SDS011;37998;53.416;6.730;2023-07-28T10:30:38;5.70;;;4.10;;
51981;SDS011;37998;53.416;6.730;2023-07-28T10:36:05;6.32;;;4.32;;
51981;SDS011;37998;53.416;6.730;2023-07-28T10:38:39;5.90;;;4.65;;
51981;SDS011;37998;53.416;6.730;2023-07-28T10:43:39;5.97;;;4.60;;
51981;SDS011;37998;53.416;6.730;2023-07-28T10:46:09;5.53;;;4.28;;
51981;SDS011;37998;53.416;6.730;2023-07-28T10:48:49;5.82;;;5.20;;
51981;SDS011;37998;53.416;6.730;2023-07-28T10:53:50;6.18;;;5.57;;
51981;SDS011;37998;53.416;6.730;2023-07-28T10:56:17;6.70;;;5.60;;
51981;SDS011;37998;53.416;6.730;2023-07-28T10:58:44;7.38;;;6.35;;
51981;SDS011;37998;53.416;6.730;2023-07-28T11:01:10;6.13;;;5.53;;
51981;SDS011;37998;53.416;6.730;2023-07-28T11:03:36;7.78;;;6.03;;
51981;SDS011;37998;53.416;6.730;2023-07-28T11:06:03;6.40;;;5.07;;
51981;SDS011;37998;53.416;6.730;2023-07-28T11:08:29;5.38;;;4.88;;
51981;SDS011;37998;53.416;6.730;2023-07-28T11:10:55;4.65;;;4.25;;
51981;SDS011;37998;53.416;6.730;2023-07-28T11:13:22;4.25;;;3.83;;
51981;SDS011;37998;53.416;6.730;2023-07-28T11:15:50;6.03;;;5.38;;
51981;SDS011;37998;53.416;6.730;2023-07-28T11:18:16;5.07;;;4.57;;
51981;SDS011;37998;53.416;6.730;2023-07-28T11:20:42;5.43;;;4.93;;
51981;SDS011;37998;53.416;6.730;2023-07-28T11:23:10;6.97;;;5.68;;
51981;SDS011;37998;53.416;6.730;2023-07-28T11:25:39;5.97;;;5.38;;
51981;SDS011;37998;53.416;6.730;2023-07-28T11:28:07;7.88;;;5.35;;
51981;SDS011;37998;53.416;6.730;2023-07-28T11:30:35;6.82;;;5.47;;
51981;SDS011;37998;53.416;6.730;2023-07-28T11:33:03;5.65;;;5.18;;
51981;SDS011;37998;53.416;6.730;2023-07-28T11:35:29;6.75;;;5.53;;
51981;SDS011;37998;53.416;6.730;2023-07-28T11:37:55;5.20;;;4.70;;
51981;SDS011;37998;53.416;6.730;2023-07-28T11:40:21;4.65;;;4.25;;
51981;SDS011;37998;53.416;6.730;2023-07-28T11:42:52;5.15;;;3.88;;
51981;SDS011;37998;53.416;6.730;2023-07-28T11:45:21;5.07;;;3.38;;
51981;SDS011;37998;53.416;6.730;2023-07-28T11:50:28;3.03;;;2.58;;
51981;SDS011;37998;53.416;6.730;2023-07-28T11:53:04;2.63;;;2.25;;
51981;SDS011;37998;53.416;6.730;2023-07-28T11:55:31;4.25;;;2.42;;
51981;SDS011;37998;53.416;6.730;2023-07-28T11:57:59;2.92;;;2.50;;
51981;SDS011;37998;53.416;6.730;2023-07-28T12:00:33;3.10;;;2.90;;
51981;SDS011;37998;53.416;6.730;2023-07-28T12:03:01;3.90;;;3.53;;
51981;SDS011;37998;53.416;6.730;2023-07-28T12:05:35;3.22;;;2.92;;
51981;SDS011;37998;53.416;6.730;2023-07-28T12:08:03;3.85;;;3.28;;
51981;SDS011;37998;53.416;6.730;2023-07-28T12:10:29;3.50;;;3.20;;
51981;SDS011;37998;53.416;6.730;2023-07-28T12:12:57;3.17;;;2.90;;
51981;SDS011;37998;53.416;6.730;2023-07-28T12:15:29;3.40;;;3.10;;
51981;SDS011;37998;53.416;6.730;2023-07-28T12:20:40;2.92;;;2.72;;
51981;SDS011;37998;53.416;6.730;2023-07-28T12:25:38;3.55;;;3.25;;
51981;SDS011;37998;53.416;6.730;2023-07-28T12:28:04;4.22;;;3.10;;
51981;SDS011;37998;53.416;6.730;2023-07-28T12:30:31;3.28;;;2.97;;
51981;SDS011;37998;53.416;6.730;2023-07-28T12:32:58;3.80;;;3.10;;
51981;SDS011;37998;53.416;6.730;2023-07-28T12:35:24;3.13;;;2.83;;
51981;SDS011;37998;53.416;6.730;2023-07-28T12:37:52;5.35;;;3.30;;
51981;SDS011;37998;53.416;6.730;2023-07-28T12:40:18;5.50;;;3.35;;
51981;SDS011;37998;53.416;6.730;2023-07-28T12:42:45;4.25;;;3.53;;
51981;SDS011;37998;53.416;6.730;2023-07-28T12:45:12;4.35;;;3.88;;
51981;SDS011;37998;53.416;6.730;2023-07-28T12:47:40;4.38;;;2.80;;
51981;SDS011;37998;53.416;6.730;2023-07-28T12:50:06;4.35;;;3.72;;
51981;SDS011;37998;53.416;6.730;2023-07-28T12:52:32;7.30;;;3.40;;
51981;SDS011;37998;53.416;6.730;2023-07-28T12:54:58;3.80;;;3.47;;
51981;SDS011;37998;53.416;6.730;2023-07-28T12:57:24;4.75;;;4.20;;
51981;SDS011;37998;53.416;6.730;2023-07-28T12:59:50;5.88;;;3.67;;
51981;SDS011;37998;53.416;6.730;2023-07-28T13:02:16;4.25;;;3.78;;
51981;SDS011;37998;53.416;6.730;2023-07-28T13:04:43;5.38;;;4.35;;
51981;SDS011;37998;53.416;6.730;2023-07-28T13:07:09;3.60;;;3.10;;
51981;SDS011;37998;53.416;6.730;2023-07-28T13:09:35;3.72;;;3.42;;
51981;SDS011;37998;53.416;6.730;2023-07-28T13:12:04;5.45;;;3.78;;
51981;SDS011;37998;53.416;6.730;2023-07-28T13:14:30;3.83;;;3.00;;
51981;SDS011;37998;53.416;6.730;2023-07-28T13:16:56;6.47;;;3.33;;
51981;SDS011;37998;53.416;6.730;2023-07-28T13:19:25;3.30;;;2.90;;
51981;SDS011;37998;53.416;6.730;2023-07-28T13:21:51;3.10;;;2.80;;
51981;SDS011;37998;53.416;6.730;2023-07-28T13:24:16;3.42;;;3.08;;
51981;SDS011;37998;53.416;6.730;2023-07-28T13:27:07;3.40;;;3.10;;
51981;SDS011;37998;53.416;6.730;2023-07-28T13:29:33;3.40;;;3.05;;
51981;SDS011;37998;53.416;6.730;2023-07-28T13:32:00;3.28;;;2.85;;
51981;SDS011;37998;53.416;6.730;2023-07-28T13:34:29;3.20;;;2.90;;
51981;SDS011;37998;53.416;6.730;2023-07-28T13:36:55;3.65;;;3.35;;
51981;SDS011;37998;53.416;6.730;2023-07-28T13:39:21;4.13;;;3.05;;
51981;SDS011;37998;53.416;6.730;2023-07-28T13:41:47;4.32;;;2.90;;
51981;SDS011;37998;53.416;6.730;2023-07-28T13:44:13;3.95;;;2.95;;
51981;SDS011;37998;53.416;6.730;2023-07-28T13:46:40;3.45;;;3.15;;
51981;SDS011;37998;53.416;6.730;2023-07-28T13:49:06;2.70;;;2.50;;
51981;SDS011;37998;53.416;6.730;2023-07-28T13:51:32;5.88;;;3.15;;
51981;SDS011;37998;53.416;6.730;2023-07-28T13:53:58;4.32;;;2.50;;
51981;SDS011;37998;53.416;6.730;2023-07-28T13:56:27;4.97;;;2.78;;
51981;SDS011;37998;53.416;6.730;2023-07-28T13:58:53;4.57;;;3.03;;
51981;SDS011;37998;53.416;6.730;2023-07-28T14:01:19;6.32;;;3.17;;
51981;SDS011;37998;53.416;6.730;2023-07-28T14:03:46;4.32;;;3.45;;
51981;SDS011;37998;53.416;6.730;2023-07-28T14:06:12;3.63;;;3.33;;
51981;SDS011;37998;53.416;6.730;2023-07-28T14:08:37;5.25;;;3.58;;
51981;SDS011;37998;53.416;6.730;2023-07-28T14:11:03;4.72;;;3.55;;
51981;SDS011;37998;53.416;6.730;2023-07-28T14:13:29;3.95;;;2.83;;
51981;SDS011;37998;53.416;6.730;2023-07-28T14:15:57;6.28;;;2.70;;
51981;SDS011;37998;53.416;6.730;2023-07-28T14:18:23;2.55;;;2.35;;
51981;SDS011;37998;53.416;6.730;2023-07-28T14:20:48;4.15;;;3.30;;
51981;SDS011;37998;53.416;6.730;2023-07-28T14:23:21;3.33;;;2.90;;
51981;SDS011;37998;53.416;6.730;2023-07-28T14:25:48;3.33;;;3.03;;
51981;SDS011;37998;53.416;6.730;2023-07-28T14:28:14;3.28;;;2.60;;
51981;SDS011;37998;53.416;6.730;2023-07-28T14:30:40;3.00;;;2.70;;
51981;SDS011;37998;53.416;6.730;2023-07-28T14:33:06;3.03;;;2.80;;
51981;SDS011;37998;53.416;6.730;2023-07-28T14:35:32;4.50;;;2.95;;
51981;SDS011;37998;53.416;6.730;2023-07-28T14:37:58;5.38;;;2.88;;
51981;SDS011;37998;53.416;6.730;2023-07-28T14:40:24;2.45;;;2.25;;
51981;SDS011;37998;53.416;6.730;2023-07-28T14:42:49;3.65;;;2.70;;
51981;SDS011;37998;53.416;6.730;2023-07-28T14:45:15;3.10;;;2.90;;
51981;SDS011;37998;53.416;6.730;2023-07-28T14:47:41;3.53;;;2.72;;
51981;SDS011;37998;53.416;6.730;2023-07-28T14:50:07;5.10;;;2.40;;
51981;SDS011;37998;53.416;6.730;2023-07-28T14:52:33;7.57;;;3.50;;
51981;SDS011;37998;53.416;6.730;2023-07-28T14:54:59;2.85;;;2.03;;
51981;SDS011;37998;53.416;6.730;2023-07-28T14:57:25;3.47;;;2.53;;